Time;durP1;ratioP1;P1;durP2;ratioP2;P2;SDS_P1;SDS_P2;PMS_P1;PMS_P2;Temp;Humidity;BMP_temperature;BMP_pressure;BME280_temperature;BME280_humidity;BME280_pressure;Samples;Min_cycle;Max_cycle;Signal;HPM_P1;HPM_P2
2023/01/24 00:00:40;;;;;;;2.60;2.28;;;20.90;29.50;;;;;;5028606;28;20104;-51
2023/01/24 00:03:11;;;;;;;2.30;1.95;;;20.90;29.50;;;;;;5028872;28;20475;-48
2023/01/24 00:05:38;;;;;;;2.13;1.92;;;20.80;29.40;;;;;;5031774;28;20339;-50
2023/01/24 00:08:04;;;;;;;2.95;2.30;;;20.80;29.40;;;;;;5033797;28;20613;-52
2023/01/24 00:10:31;;;;;;;3.00;2.30;;;20.80;29.40;;;;;;5038836;28;20025;-51
2023/01/24 00:12:57;;;;;;;2.17;1.95;;;20.80;29.50;;;;;;5036512;28;20030;-48
2023/01/24 00:15:23;;;;;;;2.88;2.17;;;20.80;29.50;;;;;;5036248;28;20037;-48
2023/01/24 00:17:49;;;;;;;2.22;1.88;;;20.80;29.50;;;;;;5022054;28;20030;-46
2023/01/24 00:20:16;;;;;;;2.53;2.10;;;20.80;29.50;;;;;;5022773;28;20073;-48
2023/01/24 00:22:41;;;;;;;2.00;1.75;;;20.80;29.60;;;;;;5024038;28;20025;-51
2023/01/24 00:25:08;;;;;;;2.53;2.25;;;20.80;29.60;;;;;;5029632;28;20348;-52
2023/01/24 00:27:34;;;;;;;2.15;1.83;;;20.70;29.50;;;;;;5024604;28;20463;-48
2023/01/24 00:30:02;;;;;;;2.33;1.90;;;20.80;29.60;;;;;;5027185;28;20025;-51
2023/01/24 00:32:28;;;;;;;2.40;1.80;;;20.80;29.60;;;;;;5033216;28;20038;-49
2023/01/24 00:34:53;;;;;;;2.30;1.80;;;20.70;29.50;;;;;;5027589;28;20087;-49
2023/01/24 00:37:19;;;;;;;2.65;2.03;;;20.70;29.50;;;;;;5023977;28;20025;-50
2023/01/24 00:39:45;;;;;;;2.53;2.00;;;20.70;29.50;;;;;;5028119;28;20113;-50
2023/01/24 00:42:11;;;;;;;2.22;1.90;;;20.70;29.50;;;;;;5028438;28;20034;-48
2023/01/24 00:44:37;;;;;;;2.35;2.00;;;20.70;29.50;;;;;;5002479;28;20033;-50
2023/01/24 00:47:03;;;;;;;2.33;2.00;;;20.70;29.50;;;;;;5026419;28;20108;-51
2023/01/24 00:49:29;;;;;;;1.98;1.77;;;20.60;29.50;;;;;;5023918;28;20359;-49
2023/01/24 00:51:55;;;;;;;2.17;1.80;;;20.60;29.50;;;;;;5022024;28;20356;-47
2023/01/24 00:54:21;;;;;;;2.50;1.80;;;20.60;29.50;;;;;;5013179;28;20083;-51
2023/01/24 00:56:47;;;;;;;2.75;1.92;;;20.60;29.50;;;;;;5012459;28;20076;-52
2023/01/24 00:59:13;;;;;;;2.30;1.92;;;20.60;29.50;;;;;;5024459;28;20049;-50
2023/01/24 01:01:39;;;;;;;2.05;1.85;;;20.60;29.50;;;;;;5010844;28;20026;-46
2023/01/24 01:04:05;;;;;;;1.85;1.70;;;20.60;29.50;;;;;;5011040;28;20734;-50
2023/01/24 01:06:31;;;;;;;1.92;1.67;;;20.60;29.50;;;;;;5024805;28;20144;-51
2023/01/24 01:08:57;;;;;;;2.83;2.15;;;20.60;29.50;;;;;;5039449;28;20121;-48
2023/01/24 01:11:23;;;;;;;2.95;2.00;;;20.60;29.50;;;;;;5012437;28;20035;-48
2023/01/24 01:13:50;;;;;;;2.13;1.92;;;20.60;29.50;;;;;;5025399;28;20087;-52
2023/01/24 01:16:18;;;;;;;4.13;2.08;;;20.50;29.50;;;;;;5023581;28;20049;-53
2023/01/24 01:18:46;;;;;;;2.30;2.10;;;20.60;29.50;;;;;;5019769;28;20021;-51
2023/01/24 01:21:14;;;;;;;2.72;2.30;;;20.50;29.50;;;;;;5022912;28;20042;-50
2023/01/24 01:23:40;;;;;;;2.63;1.90;;;20.50;29.50;;;;;;5022633;28;20108;-47
2023/01/24 01:26:09;;;;;;;2.50;2.10;;;20.50;29.50;;;;;;5015815;28;20038;-48
2023/01/24 01:28:36;;;;;;;2.45;2.20;;;20.50;29.50;;;;;;5022919;28;20022;-49
2023/01/24 01:31:02;;;;;;;2.55;2.17;;;20.50;29.50;;;;;;5025400;28;20036;-49
2023/01/24 01:33:28;;;;;;;3.55;2.55;;;20.50;29.50;;;;;;5031279;28;20337;-47
2023/01/24 01:35:54;;;;;;;2.60;1.90;;;20.50;29.60;;;;;;5020673;28;20049;-44
2023/01/24 01:38:20;;;;;;;2.92;1.88;;;20.50;29.70;;;;;;5025125;28;20175;-49
2023/01/24 01:40:46;;;;;;;2.25;1.90;;;20.50;29.70;;;;;;5019885;28;20475;-45
2023/01/24 01:43:15;;;;;;;2.35;2.08;;;20.50;29.80;;;;;;5028480;28;20056;-48
2023/01/24 01:45:49;;;;;;;2.63;2.00;;;20.50;29.90;;;;;;5023693;28;20040;-48
2023/01/24 01:48:33;;;;;;;2.95;2.10;;;20.50;29.80;;;;;;5023704;28;20037;-46
2023/01/24 01:51:02;;;;;;;;;;;20.50;29.80;;;;;;5014875;28;20028;-46
2023/01/24 01:53:33;;;;;;;2.42;2.05;;;20.40;29.80;;;;;;5024481;28;21625;-46
2023/01/24 01:56:09;;;;;;;2.53;2.00;;;20.40;29.80;;;;;;5023928;28;20042;-48
2023/01/24 01:58:36;;;;;;;3.80;2.33;;;20.40;29.80;;;;;;5015621;28;20117;-48
2023/01/24 02:01:03;;;;;;;3.38;2.15;;;20.40;29.80;;;;;;5016740;28;20137;-53
2023/01/24 02:03:47;;;;;;;2.13;1.90;;;20.40;29.80;;;;;;5028470;28;20022;-46
2023/01/24 02:06:37;;;;;;;2.35;2.13;;;20.40;29.80;;;;;;5008700;28;20119;-48
2023/01/24 02:09:07;;;;;;;2.50;2.30;;;20.40;29.80;;;;;;5032174;28;20025;-46
2023/01/24 02:11:39;;;;;;;2.53;2.33;;;20.40;29.80;;;;;;5030662;28;20479;-47
2023/01/24 02:16:57;;;;;;;2.92;2.30;;;20.40;29.80;;;;;;5031076;28;20051;-44
2023/01/24 02:19:47;;;;;;;2.95;2.35;;;20.40;29.80;;;;;;5010126;28;20447;-46
2023/01/24 02:22:50;;;;;;;2.55;2.10;;;20.40;29.80;;;;;;5021432;28;20083;-46
2023/01/24 02:25:27;;;;;;;3.58;2.35;;;20.30;29.80;;;;;;5013407;28;20045;-45
2023/01/24 02:27:55;;;;;;;2.88;2.13;;;20.40;29.80;;;;;;5031619;28;20025;-45
2023/01/24 02:30:21;;;;;;;2.40;2.20;;;20.30;29.80;;;;;;5015401;28;20025;-47
2023/01/24 02:32:46;;;;;;;2.63;2.10;;;20.30;29.80;;;;;;5023759;28;20435;-45
2023/01/24 02:35:28;;;;;;;3.45;2.40;;;20.30;29.80;;;;;;5020609;28;20071;-50
2023/01/24 02:37:58;;;;;;;3.25;2.42;;;20.30;29.80;;;;;;5012468;28;20037;-45
2023/01/24 02:40:29;;;;;;;3.03;2.58;;;20.30;29.80;;;;;;5012183;28;20449;-46
2023/01/24 02:43:00;;;;;;;3.10;2.60;;;20.30;29.80;;;;;;5021566;28;20026;-46
2023/01/24 02:45:29;;;;;;;3.67;2.72;;;20.30;29.70;;;;;;5008601;28;20064;-47
2023/01/24 02:47:56;;;;;;;3.00;2.70;;;20.30;29.80;;;;;;5013735;28;20033;-50
2023/01/24 02:50:28;;;;;;;3.10;2.60;;;20.30;29.80;;;;;;5024880;28;20026;-46
2023/01/24 02:58:05;;;;;;;3.28;2.70;;;20.30;29.80;;;;;;5030955;28;20048;-47
2023/01/24 02:58:27;;;;;;;3.08;2.60;;;20.20;29.70;;;;;;5021247;28;20041;-48
2023/01/24 03:00:52;;;;;;;3.03;2.40;;;20.20;29.80;;;;;;5027302;28;20150;-46
2023/01/24 03:03:18;;;;;;;2.60;2.38;;;20.20;29.80;;;;;;5021365;28;20051;-51
2023/01/24 03:05:57;;;;;;;3.20;2.70;;;20.20;29.80;;;;;;5024692;28;20029;-46
2023/01/24 03:08:30;;;;;;;2.67;2.45;;;20.20;29.80;;;;;;5020707;28;20112;-48
2023/01/24 03:10:58;;;;;;;2.83;2.13;;;20.20;29.80;;;;;;5022268;28;20040;-46
2023/01/24 03:35:25;;;;;;;3.20;2.80;;;20.10;29.80;;;;;;5025055;28;20111;-46
2023/01/24 03:40:36;;;;;;;3.85;3.00;;;20.10;29.80;;;;;;5015314;28;20361;-47
2023/01/24 03:43:02;;;;;;;3.38;2.92;;;20.10;29.80;;;;;;5020634;28;20029;-51
2023/01/24 03:45:37;;;;;;;3.70;2.90;;;20.10;29.80;;;;;;5020865;28;20440;-45
2023/01/24 03:48:14;;;;;;;2.78;2.42;;;20.10;29.80;;;;;;5020384;28;20129;-49
2023/01/24 03:53:31;;;;;;;5.85;3.20;;;20.10;29.90;;;;;;5036158;28;20049;-47
2023/01/24 03:56:00;;;;;;;5.18;3.20;;;20.10;29.90;;;;;;5031506;28;20349;-50
2023/01/24 03:58:32;;;;;;;6.30;3.80;;;20.10;30.00;;;;;;5011738;28;20033;-48
2023/01/24 04:01:01;;;;;;;5.47;3.30;;;20.10;30.00;;;;;;5016420;28;20445;-48
2023/01/24 04:03:59;;;;;;;4.75;3.80;;;20.10;30.00;;;;;;4991738;28;20044;-48
2023/01/24 04:06:25;;;;;;;6.60;3.75;;;20.00;29.90;;;;;;5018706;28;20056;-48
2023/01/24 04:08:52;;;;;;;4.10;3.05;;;20.00;29.90;;;;;;5036557;28;20044;-46
2023/01/24 04:11:19;;;;;;;4.40;3.25;;;20.10;30.00;;;;;;5011116;28;20514;-48
2023/01/24 04:13:50;;;;;;;4.05;3.08;;;20.10;30.00;;;;;;5014979;28;20029;-47
2023/01/24 04:16:16;;;;;;;4.28;3.55;;;20.00;30.00;;;;;;5014389;28;20030;-52
2023/01/24 04:18:51;;;;;;;4.07;3.50;;;20.10;30.00;;;;;;5031554;28;20025;-52
2023/01/24 04:21:17;;;;;;;3.47;2.67;;;20.00;30.00;;;;;;5014655;28;20042;-43
2023/01/24 04:23:43;;;;;;;3.60;3.00;;;20.00;30.00;;;;;;5017790;28;20033;-49
2023/01/24 04:26:10;;;;;;;4.25;3.17;;;20.00;30.00;;;;;;5018175;28;20357;-48
2023/01/24 04:28:36;;;;;;;3.88;3.20;;;20.00;30.00;;;;;;5036845;28;20022;-47
2023/01/24 04:31:03;;;;;;;4.57;3.30;;;20.00;30.00;;;;;;5017426;28;20040;-49
2023/01/24 04:33:47;;;;;;;3.95;3.38;;;20.00;30.00;;;;;;5023505;28;20044;-51
2023/01/24 04:36:15;;;;;;;4.90;3.40;;;20.00;30.00;;;;;;5009024;28;20060;-49
2023/01/24 04:38:42;;;;;;;4.57;3.60;;;20.00;30.50;;;;;;5013280;28;20120;-47
2023/01/24 04:41:22;;;;;;;3.97;3.30;;;20.00;30.00;;;;;;5018594;28;20087;-49
2023/01/24 04:43:49;;;;;;;4.43;3.40;;;20.00;30.00;;;;;;5021348;28;20040;-47
2023/01/24 04:46:15;;;;;;;3.50;3.20;;;20.00;30.00;;;;;;5018255;28;20364;-49
2023/01/24 04:48:55;;;;;;;4.15;3.35;;;19.90;30.00;;;;;;5020970;28;20413;-50
2023/01/24 04:51:26;;;;;;;3.67;3.28;;;20.00;30.00;;;;;;5013341;28;20029;-49
2023/01/24 04:53:52;;;;;;;3.67;3.05;;;19.90;30.00;;;;;;5026542;28;20329;-46
2023/01/24 04:56:22;;;;;;;4.57;3.67;;;19.90;30.00;;;;;;5029250;28;20065;-49
2023/01/24 04:58:48;;;;;;;3.97;3.35;;;19.90;30.00;;;;;;5019049;28;20451;-51
2023/01/24 05:01:14;;;;;;;4.28;3.40;;;19.90;30.00;;;;;;5025135;28;20053;-49
2023/01/24 05:03:58;;;;;;;3.90;3.50;;;19.90;30.00;;;;;;5011096;28;20571;-52
2023/01/24 05:06:26;;;;;;;3.70;3.30;;;19.90;30.00;;;;;;5034554;28;20034;-47
2023/01/24 05:08:53;;;;;;;4.25;3.70;;;19.90;30.00;;;;;;5025958;28;20032;-47
2023/01/24 05:11:24;;;;;;;3.88;3.17;;;19.90;30.00;;;;;;5008895;28;20456;-49
2023/01/24 05:13:52;;;;;;;3.70;3.15;;;19.90;30.00;;;;;;5016468;28;20040;-47
2023/01/24 05:16:19;;;;;;;3.97;3.25;;;19.90;30.00;;;;;;5011128;28;20045;-48
2023/01/24 05:18:46;;;;;;;4.43;3.55;;;19.90;30.00;;;;;;5007849;28;20088;-46
2023/01/24 05:21:15;;;;;;;5.10;3.63;;;19.90;30.00;;;;;;5012062;28;20053;-51
2023/01/24 05:23:42;;;;;;;3.45;3.08;;;19.90;30.00;;;;;;5019638;28;20035;-50
2023/01/24 05:26:09;;;;;;;5.03;3.78;;;19.90;30.00;;;;;;5014899;28;21438;-48
2023/01/24 05:28:35;;;;;;;5.03;3.65;;;19.90;30.10;;;;;;5018015;28;20154;-47
2023/01/24 05:31:04;;;;;;;3.65;3.13;;;19.90;30.10;;;;;;5015353;28;20405;-47
2023/01/24 05:33:30;;;;;;;4.38;3.65;;;19.90;30.00;;;;;;5012910;28;20021;-52
2023/01/24 05:36:08;;;;;;;4.97;4.15;;;19.80;30.00;;;;;;5016878;28;20063;-46
2023/01/24 05:38:37;;;;;;;4.88;3.40;;;19.80;30.00;;;;;;5020537;28;20344;-51
2023/01/24 05:41:06;;;;;;;4.20;3.70;;;19.90;30.00;;;;;;5012019;28;21242;-46
2023/01/24 05:43:34;;;;;;;5.68;3.85;;;19.80;30.00;;;;;;5007963;28;20115;-45
2023/01/24 05:46:02;;;;;;;4.53;3.28;;;19.80;30.00;;;;;;5027990;28;20041;-44
2023/01/24 05:48:32;;;;;;;4.50;3.75;;;19.80;30.00;;;;;;5009766;28;20025;-48
2023/01/24 05:51:00;;;;;;;4.50;3.88;;;19.80;30.00;;;;;;5006994;28;20071;-45
2023/01/24 05:53:27;;;;;;;4.75;3.92;;;19.80;30.00;;;;;;5023392;28;20468;-44
2023/01/24 05:55:57;;;;;;;4.63;3.88;;;19.80;30.00;;;;;;5027771;28;20096;-48
2023/01/24 05:58:25;;;;;;;3.67;3.28;;;19.80;30.00;;;;;;5015362;28;20041;-48
2023/01/24 06:01:18;;;;;;;4.65;3.88;;;19.80;30.00;;;;;;5015674;28;20086;-45
2023/01/24 06:03:47;;;;;;;4.82;3.75;;;19.80;30.00;;;;;;5017446;28;20472;-47
2023/01/24 06:06:15;;;;;;;4.47;3.80;;;19.80;30.00;;;;;;5015890;28;20032;-46
2023/01/24 06:08:41;;;;;;;4.00;3.53;;;19.80;30.00;;;;;;5023932;28;20133;-46
2023/01/24 06:11:12;;;;;;;5.57;3.42;;;19.80;30.00;;;;;;5023290;28;20017;-48
2023/01/24 06:13:39;;;;;;;4.00;3.33;;;19.70;30.00;;;;;;5021829;28;20044;-48
2023/01/24 06:16:10;;;;;;;4.15;3.17;;;19.70;30.00;;;;;;5015006;28;20060;-48
2023/01/24 06:18:36;;;;;;;4.65;3.53;;;19.70;30.00;;;;;;5011475;28;20030;-49
2023/01/24 06:21:38;;;;;;;3.58;3.22;;;19.70;30.00;;;;;;5010248;28;20057;-47
2023/01/24 06:24:05;;;;;;;4.47;3.65;;;19.70;30.00;;;;;;5003914;28;20119;-45
2023/01/24 06:26:51;;;;;;;4.15;3.60;;;19.70;30.00;;;;;;5015526;28;20166;-47
2023/01/24 06:29:20;;;;;;;4.63;3.75;;;19.70;30.00;;;;;;5026248;28;20104;-48
2023/01/24 06:31:57;;;;;;;3.85;3.30;;;19.70;30.00;;;;;;5024876;28;20029;-45
2023/01/24 06:34:45;;;;;;;4.28;3.80;;;19.70;30.00;;;;;;5029514;28;20155;-45
2023/01/24 06:37:20;;;;;;;3.85;3.38;;;19.70;30.00;;;;;;5024758;28;20037;-48
2023/01/24 06:39:50;;;;;;;3.72;3.33;;;19.70;30.00;;;;;;5026433;28;20457;-51
2023/01/24 06:42:20;;;;;;;4.28;3.70;;;19.70;30.10;;;;;;5022804;28;20437;-48
2023/01/24 06:44:46;;;;;;;4.25;3.60;;;19.60;30.00;;;;;;5027187;28;20149;-51
2023/01/24 06:47:13;;;;;;;4.32;3.53;;;19.70;30.10;;;;;;5023595;28;20246;-48
2023/01/24 06:49:39;;;;;;;4.13;3.42;;;19.70;30.10;;;;;;5010127;28;20377;-49
2023/01/24 06:52:06;;;;;;;4.07;3.58;;;19.70;30.10;;;;;;5015602;28;20372;-51
2023/01/24 06:54:34;;;;;;;3.85;3.45;;;19.60;30.30;;;;;;5005669;28;20072;-51
2023/01/24 06:57:00;;;;;;;4.20;3.60;;;19.70;30.10;;;;;;5009047;28;20128;-50
2023/01/24 06:59:26;;;;;;;5.30;4.10;;;19.70;30.10;;;;;;5021558;28;20100;-45
2023/01/24 07:01:52;;;;;;;4.13;3.38;;;19.60;30.10;;;;;;5018101;28;20056;-48
2023/01/24 07:04:18;;;;;;;4.93;3.63;;;19.60;30.00;;;;;;5017141;28;20504;-47
2023/01/24 07:06:44;;;;;;;4.30;3.65;;;19.60;30.00;;;;;;5016523;28;20030;-50
2023/01/24 07:09:10;;;;;;;7.60;3.75;;;19.60;30.00;;;;;;5028529;28;20032;-49
2023/01/24 07:11:36;;;;;;;4.65;3.75;;;19.60;30.00;;;;;;5006100;28;20049;-48
2023/01/24 07:14:02;;;;;;;4.38;3.92;;;19.60;30.00;;;;;;5013709;28;20529;-47
2023/01/24 07:16:28;;;;;;;4.45;3.65;;;19.60;30.10;;;;;;5018160;28;20160;-47
2023/01/24 07:18:54;;;;;;;4.07;3.67;;;19.60;30.20;;;;;;5013777;28;20104;-52
2023/01/24 07:21:20;;;;;;;4.60;3.67;;;19.60;30.20;;;;;;5012278;28;20052;-45
2023/01/24 07:23:48;;;;;;;4.53;3.75;;;19.60;30.20;;;;;;5015479;28;20021;-47
2023/01/24 07:26:14;;;;;;;4.95;3.60;;;19.60;30.20;;;;;;5017796;28;20119;-47
2023/01/24 07:28:41;;;;;;;4.70;3.85;;;19.60;30.40;;;;;;5025103;28;20021;-49
2023/01/24 07:31:12;;;;;;;5.85;3.20;;;19.60;30.50;;;;;;4997491;28;20036;-47
2023/01/24 07:33:38;;;;;;;3.92;3.05;;;19.60;30.50;;;;;;5018740;28;20083;-46
2023/01/24 07:36:14;;;;;;;4.30;3.17;;;19.60;30.60;;;;;;5018479;28;20402;-49
2023/01/24 07:38:40;;;;;;;3.50;2.97;;;19.60;30.60;;;;;;5021039;28;20136;-49
2023/01/24 07:41:10;;;;;;;3.70;2.92;;;19.60;30.60;;;;;;5016133;28;20461;-47
2023/01/24 07:43:36;;;;;;;3.50;3.00;;;19.70;30.70;;;;;;5017131;28;20104;-49
2023/01/24 07:46:03;;;;;;;3.97;3.15;;;19.70;30.70;;;;;;5015850;28;20419;-49
2023/01/24 07:48:29;;;;;;;3.53;3.00;;;19.70;30.60;;;;;;5012891;28;20038;-53
2023/01/24 07:50:59;;;;;;;4.30;3.47;;;19.80;30.60;;;;;;5020659;28;20454;-46
2023/01/24 07:53:24;;;;;;;3.55;3.08;;;19.80;30.60;;;;;;5020348;28;20041;-50
2023/01/24 07:55:50;;;;;;;3.92;3.38;;;19.90;30.60;;;;;;5019436;28;20042;-50
2023/01/24 07:58:16;;;;;;;3.60;3.20;;;19.90;30.60;;;;;;5012164;28;20037;-49
2023/01/24 08:00:44;;;;;;;5.07;3.45;;;19.90;30.50;;;;;;5018726;28;20113;-50
2023/01/24 08:03:10;;;;;;;3.30;2.70;;;20.00;30.50;;;;;;5016964;28;20040;-52
2023/01/24 08:05:39;;;;;;;5.35;3.85;;;20.00;30.40;;;;;;5018537;28;20495;-51
2023/01/24 08:08:05;;;;;;;4.53;3.58;;;20.00;30.40;;;;;;5013031;28;20129;-46
2023/01/24 08:10:31;;;;;;;4.13;3.30;;;20.10;30.40;;;;;;5018369;28;20026;-46
2023/01/24 08:12:57;;;;;;;3.63;3.20;;;20.10;30.20;;;;;;5017122;28;20342;-49
2023/01/24 08:15:23;;;;;;;4.28;3.78;;;20.10;30.10;;;;;;5011522;28;20093;-50
2023/01/24 08:17:52;;;;;;;5.60;2.88;;;20.20;30.10;;;;;;5016312;28;20025;-47
2023/01/24 08:20:24;;;;;;;3.92;3.38;;;20.20;30.10;;;;;;5009747;28;20102;-46
2023/01/24 08:22:54;;;;;;;4.03;3.30;;;20.20;30.00;;;;;;5015203;28;20471;-46
2023/01/24 08:25:20;;;;;;;4.43;3.75;;;20.30;30.00;;;;;;5006928;28;20037;-48
2023/01/24 08:27:46;;;;;;;4.20;3.45;;;20.30;30.00;;;;;;5013596;28;20030;-46
2023/01/24 08:30:12;;;;;;;4.22;3.30;;;20.30;29.90;;;;;;5022741;28;20091;-51
2023/01/24 08:32:38;;;;;;;4.25;3.75;;;20.40;30.00;;;;;;5014399;28;20398;-46
2023/01/24 08:35:04;;;;;;;4.45;3.72;;;20.30;29.90;;;;;;5016439;28;21016;-51
2023/01/24 08:37:30;;;;;;;4.20;3.60;;;20.40;29.90;;;;;;5015326;28;20385;-50
2023/01/24 08:39:56;;;;;;;4.30;3.67;;;20.40;30.00;;;;;;5018897;28;20036;-52
2023/01/24 08:42:23;;;;;;;3.60;3.25;;;20.40;30.20;;;;;;4999154;28;20099;-50
2023/01/24 08:44:50;;;;;;;4.18;3.63;;;20.50;30.40;;;;;;5016984;28;20037;-46
2023/01/24 08:47:16;;;;;;;4.50;3.38;;;20.50;30.40;;;;;;5031246;28;20088;-51
2023/01/24 08:49:41;;;;;;;4.30;3.60;;;20.50;30.30;;;;;;5029926;28;20037;-47
2023/01/24 08:52:07;;;;;;;4.35;3.78;;;20.50;30.10;;;;;;5039865;28;20029;-49
2023/01/24 08:54:35;;;;;;;5.30;3.92;;;20.50;30.00;;;;;;5034933;28;20039;-49
2023/01/24 08:57:06;;;;;;;4.47;3.67;;;20.50;30.00;;;;;;5029766;28;20077;-46
2023/01/24 08:59:32;;;;;;;3.97;3.58;;;20.50;29.90;;;;;;5030857;28;20029;-50
2023/01/24 09:01:58;;;;;;;4.20;3.75;;;20.50;29.80;;;;;;5038566;28;20107;-46
2023/01/24 09:04:26;;;;;;;4.93;3.95;;;20.50;29.80;;;;;;5042028;28;20360;-46
2023/01/24 09:06:52;;;;;;;4.80;4.20;;;20.50;29.70;;;;;;5021553;28;20034;-48
2023/01/24 09:09:19;;;;;;;5.35;3.25;;;20.60;29.70;;;;;;5026990;28;20021;-50
2023/01/24 09:11:47;;;;;;;4.63;3.60;;;20.50;29.60;;;;;;5032421;28;20021;-49
2023/01/24 09:14:13;;;;;;;4.45;3.60;;;20.60;29.70;;;;;;5045308;28;20040;-44
2023/01/24 09:16:39;;;;;;;4.50;3.58;;;20.60;29.60;;;;;;5032236;28;20041;-49
2023/01/24 09:19:05;;;;;;;3.78;3.33;;;20.50;29.50;;;;;;5024807;28;20030;-50
2023/01/24 09:21:31;;;;;;;4.75;3.85;;;20.60;29.60;;;;;;5026137;28;20065;-51
2023/01/24 09:23:56;;;;;;;3.55;3.25;;;20.60;29.50;;;;;;5030017;28;20026;-45
2023/01/24 09:26:23;;;;;;;4.40;3.70;;;20.50;29.50;;;;;;5027517;28;20498;-47
2023/01/24 09:28:49;;;;;;;4.38;3.55;;;20.50;29.50;;;;;;5031579;28;20040;-51
2023/01/24 09:31:15;;;;;;;4.35;3.60;;;20.50;29.50;;;;;;5020257;28;20034;-51
2023/01/24 09:33:41;;;;;;;3.60;3.30;;;20.50;29.50;;;;;;5027633;28;20106;-51
2023/01/24 09:36:07;;;;;;;4.75;3.47;;;20.50;29.40;;;;;;5035160;28;20044;-48
2023/01/24 09:38:34;;;;;;;4.47;3.80;;;20.50;29.40;;;;;;5016143;28;20029;-52
2023/01/24 09:41:05;;;;;;;3.67;3.30;;;20.50;29.40;;;;;;5017103;28;20453;-51
2023/01/24 09:43:43;;;;;;;3.90;3.20;;;20.60;29.40;;;;;;5015019;28;20032;-47
2023/01/24 09:46:24;;;;;;;4.00;3.40;;;20.50;29.40;;;;;;5016376;28;20025;-50
2023/01/24 09:49:02;;;;;;;4.18;3.55;;;20.50;29.30;;;;;;5014849;28;20091;-50
2023/01/24 09:51:31;;;;;;;4.25;3.50;;;20.50;29.30;;;;;;5013923;28;20167;-50
2023/01/24 09:54:02;;;;;;;4.85;3.75;;;20.50;29.30;;;;;;5023692;28;20025;-45
2023/01/24 09:56:35;;;;;;;4.07;3.42;;;20.50;29.30;;;;;;5025631;28;20026;-45
2023/01/24 09:59:27;;;;;;;3.83;3.50;;;20.50;29.30;;;;;;5026062;28;20033;-48
2023/01/24 10:01:53;;;;;;;4.20;3.28;;;20.50;29.30;;;;;;5018219;28;20037;-52
2023/01/24 10:04:21;;;;;;;4.32;3.45;;;20.50;29.30;;;;;;5033117;28;20026;-46
2023/01/24 10:07:26;;;;;;;4.80;3.40;;;20.50;29.30;;;;;;5031419;28;20112;-51
2023/01/24 10:10:00;;;;;;;4.25;3.58;;;20.50;29.30;;;;;;5041706;28;20091;-52
2023/01/24 10:12:35;;;;;;;4.63;3.42;;;20.50;29.20;;;;;;5039638;28;20068;-51
2023/01/24 10:15:22;;;;;;;4.35;3.50;;;20.50;29.20;;;;;;5032484;28;20340;-46
2023/01/24 10:18:21;;;;;;;4.65;3.53;;;20.50;29.20;;;;;;5027995;28;20120;-46
2023/01/24 10:21:24;;;;;;;4.53;3.60;;;20.50;29.70;;;;;;5024526;28;20046;-46
2023/01/24 10:23:57;;;;;;;3.20;2.90;;;20.50;29.20;;;;;;5023972;28;20087;-48
2023/01/24 10:26:30;;;;;;;5.35;3.50;;;20.50;29.20;;;;;;5020951;28;20041;-51
2023/01/24 10:29:09;;;;;;;3.97;3.28;;;20.50;29.10;;;;;;5036658;28;20044;-50
2023/01/24 10:31:40;;;;;;;3.72;3.33;;;20.50;29.10;;;;;;5016617;28;20030;-48
2023/01/24 10:34:18;;;;;;;4.28;3.42;;;20.50;29.20;;;;;;5038207;28;20170;-50
2023/01/24 10:36:56;;;;;;;4.20;3.58;;;20.50;29.10;;;;;;5029175;28;20460;-50
2023/01/24 10:39:22;;;;;;;4.20;3.50;;;20.60;29.10;;;;;;5028254;28;20132;-49
2023/01/24 10:41:48;;;;;;;3.72;3.38;;;20.50;29.10;;;;;;5026252;28;20026;-52
2023/01/24 10:44:28;;;;;;;4.15;3.42;;;20.50;29.10;;;;;;5015390;28;20045;-45
2023/01/24 10:47:31;;;;;;;3.92;3.15;;;20.60;29.10;;;;;;5016107;28;20060;-52
2023/01/24 10:50:05;;;;;;;4.00;3.28;;;20.60;29.10;;;;;;5015196;28;20026;-48
2023/01/24 10:52:31;;;;;;;3.45;3.10;;;20.60;29.10;;;;;;5020894;28;20105;-51
2023/01/24 10:55:01;;;;;;;3.83;3.42;;;20.60;29.10;;;;;;5028000;28;20033;-50
2023/01/24 10:57:35;;;;;;;3.80;3.38;;;20.60;29.00;;;;;;5027203;28;20506;-49
2023/01/24 11:00:17;;;;;;;4.20;3.78;;;20.60;29.00;;;;;;5023082;28;20076;-49
2023/01/24 11:02:50;;;;;;;4.22;3.15;;;20.60;29.00;;;;;;5025034;28;20037;-50
2023/01/24 11:05:18;;;;;;;4.25;3.50;;;20.70;29.00;;;;;;5014882;28;20052;-48
2023/01/24 11:07:59;;;;;;;3.47;2.92;;;20.70;29.00;;;;;;5008030;28;20092;-50
2023/01/24 11:10:37;;;;;;;3.83;3.25;;;20.70;29.00;;;;;;5034042;28;20100;-50
2023/01/24 11:13:41;;;;;;;3.53;3.08;;;20.70;29.00;;;;;;5027230;28;20158;-48
2023/01/24 11:16:16;;;;;;;3.38;3.05;;;20.70;29.00;;;;;;5016277;28;20038;-53
2023/01/24 11:19:05;;;;;;;3.45;2.92;;;20.70;29.00;;;;;;5003590;28;20168;-50
2023/01/24 11:21:32;;;;;;;3.50;2.80;;;20.70;29.00;;;;;;5000153;28;20076;-50
2023/01/24 11:24:01;;;;;;;3.38;3.08;;;20.70;29.00;;;;;;5030377;28;20179;-44
2023/01/24 11:26:29;;;;;;;3.33;3.03;;;20.70;29.00;;;;;;5022703;28;20037;-49
2023/01/24 11:29:03;;;;;;;3.78;3.22;;;20.70;29.00;;;;;;5022755;28;20049;-51
2023/01/24 11:31:43;;;;;;;3.35;2.80;;;20.80;29.10;;;;;;5026267;28;20092;-51
2023/01/24 11:34:44;;;;;;;3.60;3.00;;;20.70;29.10;;;;;;5022573;28;20040;-52
2023/01/24 11:37:40;;;;;;;3.13;2.80;;;20.70;29.80;;;;;;5012126;28;20347;-51
2023/01/24 11:40:21;;;;;;;3.65;3.00;;;20.70;29.50;;;;;;5022899;28;20044;-47
2023/01/24 11:43:24;;;;;;;3.55;2.72;;;20.80;29.70;;;;;;5027899;28;20095;-49
2023/01/24 11:46:22;;;;;;;3.80;2.63;;;20.80;29.90;;;;;;5026109;28;20042;-46
2023/01/24 11:49:04;;;;;;;3.40;2.88;;;20.90;30.00;;;;;;4981910;28;20087;-47
2023/01/24 11:51:53;;;;;;;3.00;2.67;;;21.00;30.00;;;;;;5025530;28;20029;-48
2023/01/24 11:54:57;;;;;;;2.92;2.40;;;21.10;30.00;;;;;;5021783;28;20408;-47
2023/01/24 11:57:34;;;;;;;2.67;2.28;;;21.10;30.00;;;;;;4947061;28;20467;-49
2023/01/24 12:00:11;;;;;;;2.67;2.10;;;21.20;30.50;;;;;;5019078;28;20061;-47
2023/01/24 12:03:07;;;;;;;3.15;2.33;;;21.30;29.90;;;;;;5025759;28;20033;-48
2023/01/24 12:06:01;;;;;;;5.10;2.38;;;21.50;29.90;;;;;;5028697;28;20119;-48
2023/01/24 12:08:30;;;;;;;3.13;2.35;;;21.60;29.80;;;;;;5030488;28;20500;-50
2023/01/24 12:11:11;;;;;;;3.00;2.10;;;21.70;29.80;;;;;;5030950;28;20031;-48
2023/01/24 12:13:46;;;;;;;2.22;1.90;;;21.80;29.80;;;;;;5032824;28;20045;-49
2023/01/24 12:16:52;;;;;;;5.00;2.30;;;21.90;29.90;;;;;;5031893;28;20326;-51
2023/01/24 12:19:39;;;;;;;2.78;2.10;;;22.10;29.80;;;;;;4957611;28;20069;-45
2023/01/24 12:22:27;;;;;;;2.95;2.00;;;22.10;29.70;;;;;;4956411;28;20221;-48
2023/01/24 12:25:29;;;;;;;4.65;1.85;;;22.20;29.80;;;;;;5017497;28;20080;-46
2023/01/24 12:27:57;;;;;;;2.65;1.90;;;22.30;29.90;;;;;;5016073;28;20041;-48
2023/01/24 12:30:49;;;;;;;2.03;1.75;;;22.40;30.00;;;;;;5029700;28;20026;-47
2023/01/24 12:33:31;;;;;;;2.58;1.92;;;22.40;30.00;;;;;;5030739;28;20040;-47
2023/01/24 12:36:22;;;;;;;2.72;1.80;;;22.50;30.00;;;;;;5016904;28;20041;-51
2023/01/24 12:38:53;;;;;;;3.92;1.85;;;22.60;30.00;;;;;;5028800;28;20387;-46
2023/01/24 12:41:34;;;;;;;4.15;2.00;;;22.60;29.90;;;;;;5023241;28;20035;-51
2023/01/24 12:44:47;;;;;;;3.30;1.90;;;22.70;29.90;;;;;;5028570;28;20038;-53
2023/01/24 12:47:27;;;;;;;2.47;1.70;;;22.70;29.90;;;;;;4937690;29;20039;-46
2023/01/24 12:50:12;;;;;;;4.70;1.90;;;22.80;29.80;;;;;;4933313;29;20066;-47
2023/01/24 12:53:01;;;;;;;3.05;1.95;;;22.80;29.60;;;;;;4999471;28;20475;-48
2023/01/24 12:56:14;;;;;;;2.10;1.63;;;22.80;29.30;;;;;;5023609;28;20069;-49
2023/01/24 12:58:43;;;;;;;2.28;1.70;;;22.80;29.20;;;;;;4968998;28;20039;-46
2023/01/24 13:01:26;;;;;;;2.63;1.92;;;22.80;29.00;;;;;;4972746;28;20031;-47
2023/01/24 13:04:12;;;;;;;3.42;2.03;;;22.80;28.90;;;;;;5007563;28;20041;-51
2023/01/24 13:06:49;;;;;;;3.08;2.20;;;22.90;28.90;;;;;;5029827;28;20113;-50
2023/01/24 13:09:30;;;;;;;3.50;1.85;;;22.90;28.80;;;;;;5022932;28;20018;-50
2023/01/24 13:11:58;;;;;;;3.60;2.20;;;22.90;28.80;;;;;;5026020;28;20079;-50
2023/01/24 13:14:35;;;;;;;3.42;1.92;;;22.90;28.70;;;;;;5029228;28;20025;-51
2023/01/24 13:17:16;;;;;;;2.50;1.60;;;22.90;28.60;;;;;;5010047;28;20377;-46
2023/01/24 13:20:11;;;;;;;2.47;1.90;;;22.80;28.60;;;;;;5021576;28;20025;-48
2023/01/24 13:22:52;;;;;;;3.47;1.77;;;22.80;28.50;;;;;;4993417;28;20151;-48
2023/01/24 13:25:43;;;;;;;3.15;1.80;;;22.80;28.50;;;;;;4985925;28;20064;-52
2023/01/24 13:28:12;;;;;;;2.33;2.10;;;22.80;28.40;;;;;;4988352;28;20358;-48
2023/01/24 13:30:48;;;;;;;2.47;1.67;;;22.80;28.40;;;;;;4991329;28;20030;-47
2023/01/24 13:33:19;;;;;;;2.15;1.77;;;22.80;28.40;;;;;;4990378;28;20049;-49
2023/01/24 13:35:49;;;;;;;2.40;1.90;;;22.70;28.30;;;;;;4985925;28;20042;-49
2023/01/24 13:38:19;;;;;;;2.20;1.90;;;22.70;28.30;;;;;;4982889;28;20027;-47
2023/01/24 13:41:03;;;;;;;2.42;1.83;;;22.70;28.40;;;;;;4982179;28;20425;-47
2023/01/24 13:43:51;;;;;;;2.28;1.40;;;22.70;28.40;;;;;;4988361;28;20034;-48
2023/01/24 13:46:17;;;;;;;1.90;1.70;;;22.70;28.40;;;;;;4987780;28;20048;-48
2023/01/24 13:48:54;;;;;;;2.72;1.83;;;22.70;28.40;;;;;;4990824;28;20026;-49